Time;durP1;ratioP1;P1;durP2;ratioP2;P2;SDS_P1;SDS_P2;PMS_P1;PMS_P2;Temp;Humidity;BMP_temperature;BMP_pressure;BME280_temperature;BME280_humidity;BME280_pressure;Samples;Min_cycle;Max_cycle;Signal;HPM_P1;HPM_P2
2023/05/11 00:02:24;;;;;;;;;;;;;;;18.35;43.54;101475.42;103628;1291;61513;-83
2023/05/11 00:04:50;;;;;;;;;;;;;;;18.35;43.68;101475.08;103569;1286;61410;-82
2023/05/11 00:07:26;;;;;;;;;;;;;;;18.35;43.64;101475.80;103521;1285;76403;-83
2023/05/11 00:09:51;;;;;;;;;;;;;;;18.35;43.69;101472.26;103729;1288;61304;-83
2023/05/11 00:12:24;;;;;;;;;;;;;;;18.35;43.73;101480.60;103698;1285;62299;-83
2023/05/11 00:14:50;;;;;;;;;;;;;;;18.34;43.70;101482.23;103700;1284;73303;-82
2023/05/11 00:17:20;;;;;;;;;;;;;;;18.34;43.69;101484.05;103615;1285;74583;-82
2023/05/11 00:19:54;;;;;;;;;;;;;;;18.34;43.74;101485.83;103623;1285;62408;-83
2023/05/11 00:22:29;;;;;;;;;;;;;;;18.33;43.67;101486.58;103703;1284;61345;-83
2023/05/11 00:25:14;;;;;;;;;;;;;;;18.34;43.71;101489.74;103016;1291;74096;-83
2023/05/11 00:27:44;;;;;;;;;;;;;;;18.34;43.61;101495.44;103064;1297;61332;-84
2023/05/11 00:30:11;;;;;;;;;;;;;;;18.34;43.61;101499.73;103090;1291;61618;-83
2023/05/11 00:32:47;;;;;;;;;;;;;;;18.33;43.62;101499.93;103058;1291;61315;-83
2023/05/11 00:35:18;;;;;;;;;;;;;;;18.33;43.54;101501.38;103162;1292;73281;-83
2023/05/11 00:37:44;;;;;;;;;;;;;;;18.33;43.63;101508.87;102987;1291;75655;-82
2023/05/11 00:40:21;;;;;;;;;;;;;;;18.34;43.65;101506.15;103026;1291;61308;-84
2023/05/11 00:42:56;;;;;;;;;;;;;;;18.33;43.62;101505.83;103012;1291;61449;-83
2023/05/11 00:45:21;;;;;;;;;;;;;;;18.32;43.69;101506.04;103057;1291;72558;-83
2023/05/11 00:47:56;;;;;;;;;;;;;;;18.33;43.55;101504.41;103094;1297;61378;-82
2023/05/11 00:50:32;;;;;;;;;;;;;;;18.32;43.63;101500.34;102956;1291;61315;-83
2023/05/11 00:52:57;;;;;;;;;;;;;;;18.33;43.66;101501.05;103130;1295;62139;-83
2023/05/11 00:55:23;;;;;;;;;;;;;;;18.33;43.62;101504.79;103063;1291;61519;-84
2023/05/11 00:58:06;;;;;;;;;;;;;;;18.32;43.59;101500.71;102985;1298;74336;-83
2023/05/11 01:00:35;;;;;;;;;;;;;;;18.32;43.53;101499.61;103024;1291;61377;-83
2023/05/11 01:03:12;;;;;;;;;;;;;;;18.32;43.67;101507.48;103283;1288;62336;-83
2023/05/11 01:05:40;;;;;;;;;;;;;;;18.32;43.58;101504.46;103592;1288;73201;-84
2023/05/11 01:08:11;;;;;;;;;;;;;;;18.32;43.71;101498.41;103474;1287;74508;-83
2023/05/11 01:11:06;;;;;;;;;;;;;;;18.31;43.55;101501.83;103545;1286;61371;-83
2023/05/11 01:13:57;;;;;;;;;;;;;;;18.31;43.59;101503.59;102989;1294;61314;-83
2023/05/11 01:16:23;;;;;;;;;;;;;;;18.31;43.56;101503.42;102953;1296;73358;-83
2023/05/11 01:19:29;;;;;;;;;;;;;;;18.31;43.62;101501.49;102971;1296;73284;-83
2023/05/11 01:21:57;;;;;;;;;;;;;;;18.31;43.62;101505.93;103018;1294;61564;-82
2023/05/11 01:24:51;;;;;;;;;;;;;;;18.31;43.53;101501.66;103101;1293;61338;-83
2023/05/11 01:27:38;;;;;;;;;;;;;;;18.31;43.58;101500.60;103039;1296;73559;-82
2023/05/11 01:30:09;;;;;;;;;;;;;;;18.31;43.48;101501.48;102995;1292;75430;-84
2023/05/11 01:32:38;;;;;;;;;;;;;;;18.31;43.60;101497.76;102972;1293;61306;-83
2023/05/11 01:35:12;;;;;;;;;;;;;;;18.31;43.46;101494.90;102986;1294;62236;-83
2023/05/11 01:37:41;;;;;;;;;;;;;;;18.30;43.42;101494.39;103051;1291;73509;-82
2023/05/11 01:40:16;;;;;;;;;;;;;;;18.30;43.63;101494.39;102974;1297;75858;-83
2023/05/11 01:42:44;;;;;;;;;;;;;;;18.30;43.59;101495.46;103140;1295;61563;-82
2023/05/11 01:45:12;;;;;;;;;;;;;;;18.30;43.65;101495.45;103022;1292;61815;-82
2023/05/11 01:47:43;;;;;;;;;;;;;;;18.29;43.48;101495.32;103012;1293;71451;-83
2023/05/11 01:50:18;;;;;;;;;;;;;;;18.30;43.51;101500.28;103301;1287;73087;-82
2023/05/11 01:52:44;;;;;;;;;;;;;;;18.30;43.60;101500.29;103683;1292;61246;-82
2023/05/11 01:55:30;;;;;;;;;;;;;;;18.30;43.52;101498.85;103720;1288;62465;-83
2023/05/11 01:58:03;;;;;;;;;;;;;;;18.29;43.54;101498.52;103540;1285;72607;-83
2023/05/11 02:00:31;;;;;;;;;;;;;;;18.29;43.45;101494.27;103628;1286;75811;-83
2023/05/11 02:02:59;;;;;;;;;;;;;;;18.29;43.53;101499.80;103548;1291;61399;-83
2023/05/11 02:05:28;;;;;;;;;;;;;;;18.29;43.50;101501.20;103709;1285;61306;-83
2023/05/11 02:07:57;;;;;;;;;;;;;;;18.29;43.43;101500.86;103253;1288;72340;-84
2023/05/11 02:10:30;;;;;;;;;;;;;;;18.29;43.56;101503.35;103564;1285;75304;-83
2023/05/11 02:12:55;;;;;;;;;;;;;;;18.29;43.44;101509.64;103558;1286;61557;-82
2023/05/11 02:15:37;;;;;;;;;;;;;;;;;;;;;
2023/05/11 02:18:03;;;;;;;;;;;;;;;18.28;43.49;101509.08;103566;1289;71512;-84
2023/05/11 02:20:31;;;;;;;;;;;;;;;18.28;43.58;101509.45;103484;1288;61385;-82
2023/05/11 02:22:57;;;;;;;;;;;;;;;18.28;43.61;101505.88;103264;1291;61452;-83
2023/05/11 02:25:28;;;;;;;;;;;;;;;18.28;43.53;101509.47;103204;1291;61269;-82
2023/05/11 02:27:54;;;;;;;;;;;;;;;18.28;43.44;101505.20;103004;1294;72724;-84
2023/05/11 02:30:26;;;;;;;;;;;;;;;18.28;43.45;101506.45;103081;1299;75369;-82
2023/05/11 02:33:11;;;;;;;;;;;;;;;;;;;;;
2023/05/11 02:35:46;;;;;;;;;;;;;;;18.27;43.46;101506.81;102882;1294;62565;-83
2023/05/11 02:38:23;;;;;;;;;;;;;;;18.27;43.55;101508.61;103123;1290;73441;-83
2023/05/11 02:40:53;;;;;;;;;;;;;;;18.27;43.51;101502.54;103147;1296;74305;-83
2023/05/11 02:43:23;;;;;;;;;;;;;;;18.27;43.44;101502.74;103107;1291;61535;-83
2023/05/11 02:45:52;;;;;;;;;;;;;;;18.26;43.58;101501.16;103123;1291;61442;-82
2023/05/11 02:48:21;;;;;;;;;;;;;;;18.26;43.48;101507.20;103133;1291;72768;-83
2023/05/11 02:50:49;;;;;;;;;;;;;;;18.26;43.40;101508.30;103109;1291;75485;-82
2023/05/11 02:53:27;;;;;;;;;;;;;;;18.26;43.46;101508.28;103407;1288;61391;-82
2023/05/11 02:55:53;;;;;;;;;;;;;;;18.26;43.51;101513.83;103205;1288;61352;-84
2023/05/11 02:58:28;;;;;;;;;;;;;;;18.26;43.46;101514.54;103642;1286;73429;-83
2023/05/11 03:00:55;;;;;;;;;;;;;;;18.26;43.47;101517.02;103586;1287;75032;-83
2023/05/11 03:03:21;;;;;;;;;;;;;;;18.25;43.39;101516.88;103589;1285;61366;-82
2023/05/11 03:05:52;;;;;;;;;;;;;;;18.26;43.40;101519.89;103688;1285;61336;-83
2023/05/11 03:08:17;;;;;;;;;;;;;;;18.25;43.31;101530.25;103886;1286;73312;-83
2023/05/11 03:10:52;;;;;;;;;;;;;;;18.25;43.46;101526.31;103540;1285;61430;-83
2023/05/11 03:13:21;;;;;;;;;;;;;;;18.25;43.49;101527.24;103640;1286;61355;-84
2023/05/11 03:15:50;;;;;;;;;;;;;;;18.25;43.43;101526.88;103643;1285;61194;-84
2023/05/11 03:18:18;;;;;;;;;;;;;;;18.25;43.46;101524.91;103553;1285;61381;-85
2023/05/11 03:20:44;;;;;;;;;;;;;;;18.25;43.31;101524.92;103661;1285;75183;-83
2023/05/11 03:23:10;;;;;;;;;;;;;;;18.24;43.32;101526.73;103656;1289;61461;-82
2023/05/11 03:25:35;;;;;;;;;;;;;;;18.25;43.29;101526.34;103547;1285;61309;-84
2023/05/11 03:28:04;;;;;;;;;;;;;;;18.24;43.41;101527.82;103674;1285;73529;-83
2023/05/11 03:30:33;;;;;;;;;;;;;;;18.24;43.27;101528.33;103733;1291;61347;-83
2023/05/11 03:33:01;;;;;;;;;;;;;;;18.24;43.31;101529.40;103583;1285;61392;-83
2023/05/11 03:35:30;;;;;;;;;;;;;;;18.24;43.23;101530.30;103567;1285;61402;-82
2023/05/11 03:37:56;;;;;;;;;;;;;;;18.24;43.34;101531.39;103536;1286;72671;-83
2023/05/11 03:40:27;;;;;;;;;;;;;;;18.24;43.33;101537.45;103425;1286;61464;-83
2023/05/11 03:43:01;;;;;;;;;;;;;;;18.24;43.37;101543.31;103608;1286;61932;-82
2023/05/11 03:45:30;;;;;;;;;;;;;;;18.25;43.36;101550.24;103493;1287;61402;-83
2023/05/11 03:48:02;;;;;;;;;;;;;;;18.24;43.35;101544.39;103535;1286;72331;-84
2023/05/11 03:50:34;;;;;;;;;;;;;;;18.24;43.45;101552.38;103524;1289;74745;-83
2023/05/11 03:52:59;;;;;;;;;;;;;;;18.24;43.32;101557.55;103496;1288;62648;-82
2023/05/11 03:55:25;;;;;;;;;;;;;;;18.25;43.29;101562.36;103611;1286;61394;-83
2023/05/11 03:57:55;;;;;;;;;;;;;;;18.24;43.25;101564.86;103535;1286;73396;-84
2023/05/11 04:00:23;;;;;;;;;;;;;;;18.25;43.26;101565.55;103523;1291;74402;-82
2023/05/11 04:02:50;;;;;;;;;;;;;;;18.21;43.15;101565.17;103531;1286;61308;-83
2023/05/11 04:05:19;;;;;;;;;;;;;;;18.12;43.08;101567.21;103533;1288;61404;-83
2023/05/11 04:07:53;;;;;;;;;;;;;;;18.05;43.15;101568.05;103499;1288;72663;-82
2023/05/11 04:10:19;;;;;;;;;;;;;;;17.99;43.08;101566.38;103583;1288;74787;-82
2023/05/11 04:12:48;;;;;;;;;;;;;;;17.95;43.07;101568.54;103647;1288;61379;-83
2023/05/11 04:15:22;;;;;;;;;;;;;;;17.90;43.07;101570.67;103619;1288;61275;-84
2023/05/11 04:17:47;;;;;;;;;;;;;;;17.87;43.06;101575.48;103422;1287;73200;-83
2023/05/11 04:20:13;;;;;;;;;;;;;;;17.83;42.96;101576.54;103703;1290;61368;-83
2023/05/11 04:22:45;;;;;;;;;;;;;;;17.80;42.94;101577.89;103633;1288;61367;-83
2023/05/11 04:25:13;;;;;;;;;;;;;;;17.79;43.00;101576.34;103601;1287;61402;-83
2023/05/11 04:27:42;;;;;;;;;;;;;;;17.78;42.91;101580.34;103634;1287;72340;-83
2023/05/11 04:30:08;;;;;;;;;;;;;;;17.75;42.99;101578.66;103604;1287;75644;-82
2023/05/11 04:32:39;;;;;;;;;;;;;;;17.70;42.81;101585.49;103393;1292;62629;-83
2023/05/11 04:35:07;;;;;;;;;;;;;;;17.56;42.88;101584.49;103633;1288;61410;-83
2023/05/11 04:37:36;;;;;;;;;;;;;;;17.52;42.82;101584.84;103759;1288;73508;-83
2023/05/11 04:40:03;;;;;;;;;;;;;;;17.52;42.83;101591.27;104015;1289;61448;-81
2023/05/11 04:42:29;;;;;;;;;;;;;;;17.49;42.70;101596.02;103772;1288;61254;-81
2023/05/11 04:44:54;;;;;;;;;;;;;;;17.40;42.75;101596.58;104172;1290;61573;-81
2023/05/11 04:47:20;;;;;;;;;;;;;;;17.39;42.76;101598.38;104641;1288;61355;-82
2023/05/11 04:49:45;;;;;;;;;;;;;;;17.40;42.75;101597.60;104576;1294;61583;-83
2023/05/11 04:52:11;;;;;;;;;;;;;;;17.41;42.69;101594.93;104374;1288;61317;-82
2023/05/11 04:54:38;;;;;;;;;;;;;;;17.35;42.57;101595.38;104375;1288;61336;-81
2023/05/11 05:00:42;;;;;;;;;;;;;;;17.20;42.66;101605.05;104952;1288;71296;-82
2023/05/11 05:03:15;;;;;;;;;;;;;;;17.18;42.70;101603.52;105271;1288;76210;-82
2023/05/11 05:05:41;;;;;;;;;;;;;;;17.18;42.70;101601.04;105296;1288;61147;-83
2023/05/11 05:08:28;;;;;;;;;;;;;;;17.12;42.66;101608.93;105411;1287;60189;-84
2023/05/11 05:11:05;;;;;;;;;;;;;;;16.87;42.52;101606.22;104945;1289;71740;-83
2023/05/11 05:14:05;;;;;;;;;;;;;;;;;;;;;
2023/05/11 05:16:53;;;;;;;;;;;;;;;16.65;43.16;101604.08;106260;1286;60365;-83
2023/05/11 05:19:18;;;;;;;;;;;;;;;16.76;43.16;101603.08;105444;1286;60124;-82
2023/05/11 05:21:44;;;;;;;;;;;;;;;16.90;43.21;101605.77;105328;1287;61230;-82
2023/05/11 05:24:11;;;;;;;;;;;;;;;17.00;43.21;101605.70;105294;1287;61348;-82
2023/05/11 05:26:37;;;;;;;;;;;;;;;17.07;43.09;101610.23;105327;1287;61314;-83
2023/05/11 05:29:03;;;;;;;;;;;;;;;17.12;43.09;101607.01;105016;1288;61630;-83
2023/05/11 05:31:28;;;;;;;;;;;;;;;17.20;43.00;101607.88;105196;1288;59957;-83
2023/05/11 05:33:54;;;;;;;;;;;;;;;17.27;42.96;101609.39;105088;1288;61559;-83
2023/05/11 05:36:20;;;;;;;;;;;;;;;17.34;43.07;101610.88;105267;1287;59911;-82
2023/05/11 05:38:45;;;;;;;;;;;;;;;17.42;42.99;101616.40;105248;1286;60133;-82
2023/05/11 05:41:10;;;;;;;;;;;;;;;17.43;42.90;101614.23;105010;1287;61296;-82
2023/05/11 05:43:36;;;;;;;;;;;;;;;17.39;42.84;101615.98;105075;1288;61410;-82
2023/05/11 05:46:02;;;;;;;;;;;;;;;17.36;42.92;101618.25;105044;1288;61310;-82
2023/05/11 05:48:28;;;;;;;;;;;;;;;17.35;42.71;101618.86;105064;1287;61190;-83
2023/05/11 05:50:53;;;;;;;;;;;;;;;17.25;42.74;101621.02;105208;1286;59511;-83
2023/05/11 05:53:19;;;;;;;;;;;;;;;17.14;42.76;101617.39;105312;1288;61015;-84
2023/05/11 05:55:44;;;;;;;;;;;;;;;17.01;42.81;101620.10;105213;1288;59566;-84
2023/05/11 05:58:10;;;;;;;;;;;;;;;16.86;42.81;101617.61;105098;1288;61312;-82
2023/05/11 06:00:38;;;;;;;;;;;;;;;16.66;42.86;101612.39;105145;1288;63188;-82
2023/05/11 06:03:04;;;;;;;;;;;;;;;16.51;43.08;101618.48;105231;1288;61157;-82
2023/05/11 06:05:29;;;;;;;;;;;;;;;16.36;43.13;101616.89;105228;1288;61321;-81
2023/05/11 06:07:57;;;;;;;;;;;;;;;16.28;43.44;101618.30;105138;1288;61395;-82
2023/05/11 06:10:22;;;;;;;;;;;;;;;16.25;43.55;101613.41;105016;1291;61867;-81
2023/05/11 06:12:48;;;;;;;;;;;;;;;16.34;43.74;101611.31;104972;1288;61712;-81
2023/05/11 06:15:14;;;;;;;;;;;;;;;16.52;43.77;101613.98;104947;1291;62521;-81
2023/05/11 06:17:40;;;;;;;;;;;;;;;16.70;43.75;101614.17;104836;1290;73417;-81
2023/05/11 06:20:06;;;;;;;;;;;;;;;16.85;43.71;101614.46;104506;1288;59331;-81
2023/05/11 06:22:32;;;;;;;;;;;;;;;17.00;43.72;101611.59;104686;1290;61440;-82
2023/05/11 06:24:57;;;;;;;;;;;;;;;17.08;43.60;101614.99;104795;1288;61405;-82
2023/05/11 06:27:23;;;;;;;;;;;;;;;17.16;43.52;101616.80;104609;1288;61556;-82
2023/05/11 06:29:50;;;;;;;;;;;;;;;17.21;43.36;101621.02;104790;1288;61327;-81
2023/05/11 06:32:15;;;;;;;;;;;;;;;17.25;43.40;101619.96;104526;1288;74606;-83
2023/05/11 06:34:41;;;;;;;;;;;;;;;17.27;43.33;101625.40;104670;1288;61653;-82
2023/05/11 06:37:06;;;;;;;;;;;;;;;17.33;43.38;101628.73;104766;1285;69447;-83
2023/05/11 06:39:38;;;;;;;;;;;;;;;17.40;43.41;101630.92;104890;1287;61401;-84
2023/05/11 06:42:04;;;;;;;;;;;;;;;17.47;43.44;101626.52;104727;1288;74357;-81
2023/05/11 06:44:30;;;;;;;;;;;;;;;17.50;43.27;101623.56;104870;1288;61261;-82
2023/05/11 06:46:56;;;;;;;;;;;;;;;17.49;43.19;101625.38;104781;1287;61221;-82
2023/05/11 06:49:21;;;;;;;;;;;;;;;17.38;43.07;101623.72;104881;1288;62073;-81
2023/05/11 06:51:47;;;;;;;;;;;;;;;17.26;43.32;101621.35;105074;1287;59908;-83
2023/05/11 06:54:12;;;;;;;;;;;;;;;17.14;43.30;101624.32;105615;1288;61312;-84
2023/05/11 06:56:38;;;;;;;;;;;;;;;17.02;43.37;101622.17;105360;1288;61420;-82
2023/05/11 06:59:04;;;;;;;;;;;;;;;16.99;43.59;101620.85;105364;1288;61263;-82
2023/05/11 07:01:30;;;;;;;;;;;;;;;17.02;43.51;101620.58;105264;1290;60083;-83
2023/05/11 07:03:57;;;;;;;;;;;;;;;16.97;43.58;101618.11;105354;1286;61381;-82
2023/05/11 07:06:22;;;;;;;;;;;;;;;16.95;43.75;101618.36;104812;1288;648381;-82
2023/05/11 07:08:58;;;;;;;;;;;;;;;16.95;43.68;101616.21;105207;1288;62437;-82
2023/05/11 07:11:28;;;;;;;;;;;;;;;16.78;43.46;101616.68;105063;1290;72443;-83
2023/05/11 07:13:56;;;;;;;;;;;;;;;16.60;43.57;101619.73;105208;1286;75356;-83
2023/05/11 07:16:22;;;;;;;;;;;;;;;16.55;43.66;101618.67;105295;1287;60167;-83
2023/05/11 07:18:47;;;;;;;;;;;;;;;16.54;43.73;101620.48;105313;1288;61238;-83
2023/05/11 07:21:13;;;;;;;;;;;;;;;16.56;43.82;101619.32;105306;1288;61541;-83
2023/05/11 07:23:38;;;;;;;;;;;;;;;16.66;43.73;101621.09;105154;1287;61249;-83
2023/05/11 07:26:07;;;;;;;;;;;;;;;16.71;43.76;101620.90;105016;1286;61319;-83
2023/05/11 07:28:36;;;;;;;;;;;;;;;16.77;43.60;101618.67;105103;1288;59890;-83
2023/05/11 07:31:01;;;;;;;;;;;;;;;16.83;43.69;101621.31;105211;1286;61661;-82
2023/05/11 07:33:27;;;;;;;;;;;;;;;16.91;43.47;101630.97;105208;1288;61335;-83
2023/05/11 07:35:52;;;;;;;;;;;;;;;16.99;43.55;101626.54;105100;1288;61265;-83
2023/05/11 07:38:18;;;;;;;;;;;;;;;17.09;43.59;101624.55;105313;1285;61442;-82
2023/05/11 07:40:43;;;;;;;;;;;;;;;17.18;43.56;101618.66;105565;1285;63207;-83
2023/05/11 07:43:09;;;;;;;;;;;;;;;17.26;43.48;101619.77;105293;1285;61372;-82
2023/05/11 07:45:34;;;;;;;;;;;;;;;17.32;43.35;101624.14;105549;1285;61333;-83
2023/05/11 07:47:59;;;;;;;;;;;;;;;17.38;43.37;101621.91;105348;1285;61371;-83
2023/05/11 07:50:25;;;;;;;;;;;;;;;17.41;43.19;101620.19;105337;1285;59722;-82
2023/05/11 07:52:51;;;;;;;;;;;;;;;17.33;43.01;101618.95;104994;1285;61413;-82
2023/05/11 07:55:18;;;;;;;;;;;;;;;17.31;43.16;101617.09;105396;1285;61730;-82
2023/05/11 07:57:44;;;;;;;;;;;;;;;17.36;43.10;101613.48;105351;1285;72478;-82
2023/05/11 08:00:09;;;;;;;;;;;;;;;17.42;43.14;101613.20;105321;1285;62498;-82
2023/05/11 08:02:35;;;;;;;;;;;;;;;17.48;43.03;101608.67;105486;1285;61304;-83
2023/05/11 08:05:01;;;;;;;;;;;;;;;17.51;43.06;101615.52;105558;1285;59986;-84
2023/05/11 08:07:27;;;;;;;;;;;;;;;17.39;42.69;101621.70;105404;1285;59474;-83
2023/05/11 08:09:52;;;;;;;;;;;;;;;17.21;42.50;101621.73;105487;1285;59657;-83
2023/05/11 08:12:18;;;;;;;;;;;;;;;17.12;42.48;101613.77;105535;1290;73784;-83
2023/05/11 08:14:43;;;;;;;;;;;;;;;17.15;42.58;101611.87;105741;1288;59732;-83
2023/05/11 08:17:12;;;;;;;;;;;;;;;17.24;42.69;101609.34;105860;1286;60467;-82
2023/05/11 08:19:37;;;;;;;;;;;;;;;17.30;42.74;101616.23;105599;1286;73446;-82
2023/05/11 08:22:03;;;;;;;;;;;;;;;17.31;42.68;101614.92;105337;1288;61333;-82
2023/05/11 08:24:30;;;;;;;;;;;;;;;17.34;42.92;101610.53;105391;1286;59826;-83
2023/05/11 08:26:56;;;;;;;;;;;;;;;17.39;42.79;101607.11;105089;1285;60527;-82
2023/05/11 08:29:21;;;;;;;;;;;;;;;17.42;42.65;101603.39;105106;1291;60168;-83
2023/05/11 08:31:48;;;;;;;;;;;;;;;17.47;42.66;101603.56;105109;1285;59671;-82
2023/05/11 08:34:14;;;;;;;;;;;;;;;17.51;42.57;101601.27;104979;1285;61209;-82
2023/05/11 08:36:39;;;;;;;;;;;;;;;17.55;42.49;101594.52;104929;1286;61250;-83
2023/05/11 08:39:05;;;;;;;;;;;;;;;17.58;42.39;101590.80;104925;1288;60465;-82
2023/05/11 08:41:30;;;;;;;;;;;;;;;17.52;42.23;101597.81;105086;1293;61339;-82
2023/05/11 08:43:57;;;;;;;;;;;;;;;17.50;42.26;101593.30;105061;1286;59973;-82
2023/05/11 08:46:26;;;;;;;;;;;;;;;17.52;42.20;101589.47;104910;1286;59447;-83
2023/05/11 08:48:51;;;;;;;;;;;;;;;17.55;42.16;101590.55;104941;1288;62443;-82
2023/05/11 08:51:17;;;;;;;;;;;;;;;17.61;42.18;101591.05;104725;1285;61311;-82
2023/05/11 08:53:43;;;;;;;;;;;;;;;17.63;42.12;101591.48;104619;1284;62526;-83
2023/05/11 08:56:09;;;;;;;;;;;;;;;17.65;42.09;101593.36;105126;1284;61131;-82
2023/05/11 08:58:36;;;;;;;;;;;;;;;17.65;41.86;101589.42;104819;1285;61293;-83
2023/05/11 09:01:04;;;;;;;;;;;;;;;17.64;41.63;101588.25;106407;1285;59546;-83
2023/05/11 09:03:30;;;;;;;;;;;;;;;17.64;41.72;101591.09;106414;1285;59721;-83
2023/05/11 09:05:55;;;;;;;;;;;;;;;17.62;41.57;101583.87;106066;1285;59918;-82
2023/05/11 09:08:21;;;;;;;;;;;;;;;17.56;41.29;101582.34;106284;1286;59426;-82
2023/05/11 09:10:46;;;;;;;;;;;;;;;17.53;41.47;101585.13;106385;1288;59523;-83
2023/05/11 09:13:12;;;;;;;;;;;;;;;17.52;41.31;101582.54;105031;1286;72914;-81
2023/05/11 09:15:38;;;;;;;;;;;;;;;17.47;41.05;101575.80;105244;1285;61309;-82
2023/05/11 09:18:03;;;;;;;;;;;;;;;17.36;40.88;101576.27;104932;1291;61350;-82
2023/05/11 09:20:31;;;;;;;;;;;;;;;17.37;41.05;101568.59;104963;1286;61347;-82
2023/05/11 09:22:59;;;;;;;;;;;;;;;17.43;41.14;101571.89;104835;1291;60802;-81
2023/05/11 09:25:25;;;;;;;;;;;;;;;17.48;41.07;101570.95;104944;1285;74302;-81
2023/05/11 09:27:51;;;;;;;;;;;;;;;17.54;41.12;101567.30;105031;1288;61388;-81
2023/05/11 09:30:17;;;;;;;;;;;;;;;17.60;41.17;101561.54;105191;1291;61315;-77
2023/05/11 09:32:50;;;;;;;;;;;;;;;17.65;41.12;101566.11;104687;1285;60061;-79
2023/05/11 09:35:44;;;;;;;;;;;;;;;17.70;41.24;101558.41;104822;1285;74989;-79
2023/05/11 09:38:10;;;;;;;;;;;;;;;17.76;41.24;101556.54;103876;1291;61276;-79
2023/05/11 09:40:41;;;;;;;;;;;;;;;17.80;41.29;101543.89;104003;1291;61382;-79
2023/05/11 09:43:17;;;;;;;;;;;;;;;17.83;41.29;101543.60;103949;1291;72821;-81
2023/05/11 09:45:43;;;;;;;;;;;;;;;17.85;41.15;101542.63;104687;1295;74565;-81
2023/05/11 09:48:18;;;;;;;;;;;;;;;17.85;41.16;101546.53;104818;1291;59617;-81
2023/05/11 09:50:44;;;;;;;;;;;;;;;17.83;41.13;101544.65;104748;1291;60086;-82
2023/05/11 09:53:09;;;;;;;;;;;;;;;17.83;40.96;101541.48;104851;1295;60597;-82
2023/05/11 09:55:35;;;;;;;;;;;;;;;17.84;40.99;101543.20;104635;1291;61331;-82
2023/05/11 09:58:01;;;;;;;;;;;;;;;17.84;41.04;101543.19;104470;1291;60741;-81
2023/05/11 10:00:26;;;;;;;;;;;;;;;17.80;40.73;101537.86;104455;1291;60535;-82
2023/05/11 10:03:06;;;;;;;;;;;;;;;17.74;40.78;101534.89;104840;1291;61194;-81
2023/05/11 10:05:32;;;;;;;;;;;;;;;17.74;40.83;101527.80;104929;1291;72411;-80
2023/05/11 10:07:58;;;;;;;;;;;;;;;17.73;40.73;101529.23;105082;1291;60759;-81
2023/05/11 10:10:27;;;;;;;;;;;;;;;17.66;40.30;101531.54;104934;1291;59621;-81
2023/05/11 10:12:52;;;;;;;;;;;;;;;17.53;40.28;101531.23;104839;1291;60500;-81
2023/05/11 10:15:20;;;;;;;;;;;;;;;17.53;40.28;101530.49;105227;1288;61315;-81
2023/05/11 10:17:45;;;;;;;;;;;;;;;17.57;40.40;101523.75;105362;1291;60001;-82
2023/05/11 10:20:11;;;;;;;;;;;;;;;17.56;40.23;101512.56;105236;1285;61280;-82
2023/05/11 10:22:36;;;;;;;;;;;;;;;17.57;40.14;101527.48;105301;1285;61295;-81
2023/05/11 10:25:04;;;;;;;;;;;;;;;17.57;40.18;101522.66;105035;1285;61108;-81
2023/05/11 10:27:30;;;;;;;;;;;;;;;17.54;39.96;101521.73;105340;1288;61315;-81
2023/05/11 10:29:56;;;;;;;;;;;;;;;17.53;40.08;101516.61;105104;1285;61525;-81
2023/05/11 10:32:24;;;;;;;;;;;;;;;17.55;40.05;101516.73;106466;1286;60177;-82
2023/05/11 10:34:50;;;;;;;;;;;;;;;17.51;39.92;101515.65;105080;1285;60604;-81
2023/05/11 10:37:16;;;;;;;;;;;;;;;17.48;39.80;101517.58;105032;1285;61885;-81
2023/05/11 10:39:43;;;;;;;;;;;;;;;17.47;39.92;101511.21;105000;1285;61084;-81
2023/05/11 10:42:21;;;;;;;;;;;;;;;17.53;40.27;101513.59;104869;1285;61368;-81
2023/05/11 10:44:50;;;;;;;;;;;;;;;17.62;40.49;101509.48;104962;1285;73273;-82
2023/05/11 10:47:25;;;;;;;;;;;;;;;17.65;40.49;101506.48;104847;1286;74527;-81
2023/05/11 10:50:05;;;;;;;;;;;;;;;17.69;40.64;101503.45;104863;1287;61145;-82
2023/05/11 10:52:50;;;;;;;;;;;;;;;17.75;40.73;101508.52;105156;1286;60306;-81
2023/05/11 10:55:35;;;;;;;;;;;;;;;17.80;40.79;101500.08;105123;1288;72735;-81
2023/05/11 10:58:06;;;;;;;;;;;;;;;17.85;40.85;101491.32;105252;1285;75959;-80
2023/05/11 11:00:46;;;;;;;;;;;;;;;17.92;40.90;101492.27;105776;1286;61292;-81
2023/05/11 11:03:15;;;;;;;;;;;;;;;17.93;40.72;101496.84;105555;1286;60085;-81
2023/05/11 11:05:42;;;;;;;;;;;;;;;17.89;40.49;101490.77;105515;1284;73114;-82
2023/05/11 11:08:08;;;;;;;;;;;;;;;17.86;40.33;101487.54;105771;1284;75614;-82
2023/05/11 11:10:37;;;;;;;;;;;;;;;17.87;40.35;101487.31;105415;1291;61306;-82
2023/05/11 11:13:04;;;;;;;;;;;;;;;17.87;40.27;101491.58;105276;1284;61106;-81
2023/05/11 11:15:48;;;;;;;;;;;;;;;17.86;40.32;101482.20;105385;1289;61100;-81
2023/05/11 11:18:23;;;;;;;;;;;;;;;17.88;40.09;101484.60;105381;1286;75738;-82
2023/05/11 11:20:51;;;;;;;;;;;;;;;17.86;39.90;101486.44;105358;1286;59531;-82
2023/05/11 11:23:36;;;;;;;;;;;;;;;17.83;39.80;101482.50;104914;1286;61410;-80
2023/05/11 11:26:01;;;;;;;;;;;;;;;17.85;39.76;101489.91;104798;1288;73403;-81
2023/05/11 11:28:27;;;;;;;;;;;;;;;17.82;39.56;101490.76;104988;1290;61318;-80
2023/05/11 11:31:11;;;;;;;;;;;;;;;17.81;39.53;101490.10;105161;1286;61343;-81
2023/05/11 11:33:37;;;;;;;;;;;;;;;17.81;39.62;101486.00;105070;1290;60020;-80
2023/05/11 11:36:02;;;;;;;;;;;;;;;17.83;39.62;101482.52;104803;1290;61352;-81
2023/05/11 11:38:31;;;;;;;;;;;;;;;17.84;39.77;101477.30;104752;1292;61481;-81
2023/05/11 11:40:56;;;;;;;;;;;;;;;17.80;39.42;101468.38;105103;1286;61151;-81
2023/05/11 11:43:23;;;;;;;;;;;;;;;17.79;39.49;101474.70;105122;1285;61698;-80
2023/05/11 11:45:54;;;;;;;;;;;;;;;17.80;39.41;101468.59;105147;1286;61454;-81
2023/05/11 11:48:20;;;;;;;;;;;;;;;17.81;39.46;101477.28;104969;1289;75520;-82
2023/05/11 11:50:46;;;;;;;;;;;;;;;17.81;39.25;101475.11;105036;1288;61867;-81
2023/05/11 11:53:31;;;;;;;;;;;;;;;17.80;39.27;101476.77;104847;1286;59500;-81
2023/05/11 11:55:56;;;;;;;;;;;;;;;17.78;39.32;101469.92;104673;1287;73554;-81
2023/05/11 11:58:43;;;;;;;;;;;;;;;17.77;39.16;101467.48;104135;1291;61489;-81
2023/05/11 12:01:13;;;;;;;;;;;;;;;17.72;39.26;101466.43;104848;1287;61197;-81
2023/05/11 12:03:40;;;;;;;;;;;;;;;17.70;39.24;101462.30;105022;1287;60655;-81
2023/05/11 12:06:07;;;;;;;;;;;;;;;17.71;39.28;101459.73;106427;1286;73279;-81
2023/05/11 12:08:33;;;;;;;;;;;;;;;17.72;39.11;101463.27;106452;1285;74276;-81
2023/05/11 12:10:59;;;;;;;;;;;;;;;17.72;39.12;101458.80;106545;1286;59280;-81
2023/05/11 12:13:24;;;;;;;;;;;;;;;17.76;39.14;101453.80;106703;1284;59127;-81
2023/05/11 12:15:50;;;;;;;;;;;;;;;17.82;39.29;101446.25;106438;1290;59426;-81
2023/05/11 12:18:21;;;;;;;;;;;;;;;17.87;39.49;101446.90;106583;1285;59134;-81
2023/05/11 12:20:47;;;;;;;;;;;;;;;17.91;39.39;101440.45;106697;1286;75423;-81
2023/05/11 12:23:13;;;;;;;;;;;;;;;17.97;39.54;101436.33;105793;1285;61282;-81
2023/05/11 12:25:38;;;;;;;;;;;;;;;18.01;39.42;101430.07;104792;1288;61474;-81
2023/05/11 12:28:05;;;;;;;;;;;;;;;18.04;39.49;101429.02;104350;1290;61387;-81
2023/05/11 12:30:31;;;;;;;;;;;;;;;18.07;39.57;101427.29;104257;1291;61240;-82
2023/05/11 12:32:58;;;;;;;;;;;;;;;18.09;39.51;101428.23;104314;1286;61327;-82
2023/05/11 12:35:28;;;;;;;;;;;;;;;18.11;39.58;101427.97;104438;1285;61388;-81
2023/05/11 12:37:53;;;;;;;;;;;;;;;18.13;39.55;101424.66;104196;1284;74425;-81
2023/05/11 12:40:22;;;;;;;;;;;;;;;18.14;39.46;101419.98;104291;1289;73510;-81
2023/05/11 12:42:50;;;;;;;;;;;;;;;18.15;39.55;101421.18;104397;1285;61259;-81
2023/05/11 12:45:17;;;;;;;;;;;;;;;18.16;39.77;101418.44;103895;1288;62484;-83